KLAS/LAS METAR and TAF weather

Enter ICAO airport designator
Station Type Date Time Source
KLAS METAR 2020/07/06 19:56 UTC NOAA

KLAS 061956Z 06004KT 10SM CLR 40/M03 A2984 RMK AO2 SLP071 T04001033


Station Type Date Time Source
KLAS Decoded METAR 2020/07/06 19:56 UTC NOAA

MCCARRAN INTERNATIONAL AIRPORT , NV, United States (KLAS) 36-07N 115-16W 636M
Jul 06, 2020 - 03:56 PM EDT / 2020.07.06 1956 UTC
Wind: from the ENE (060 degrees) at 5 MPH (4 KT):0
Visibility: 10 mile(s):0
Sky conditions: clear
Temperature: 104.0 F (40.0 C)
Dew Point: 26.1 F (-3.3 C)
Relative Humidity: 6%
Pressure (altimeter): 29.84 in. Hg (1010 hPa)
ob: KLAS 061956Z 06004KT 10SM CLR 40/M03 A2984 RMK AO2 SLP071 T04001033
cycle: 20

Station Type Date Time Source
KLAS TAF 2020/07/06 20:06 UTC NOAA

TAF
AMD KLAS 062005Z 0620/0724 09009KT P6SM SKC
FM062100 15010G17KT P6SM SKC
FM070000 20014G23KT P6SM SKC
FM070400 22010KT P6SM SKC
FM071400 19015G24KT P6SM SKC

Example: see airport list